Terminal Aerodrome Forecast
Issued by NWS

Home | Current Version | Previous Version | Text Only | Print | Product List | Glossary On
Versions: 1 2 3 4 5 6 7 8 9 10 11 12
729
FTPA31 PHFO 302332
TAFHJH
TAF
PHJH 302332Z 0100/0124 06017G26KT P6SM VCSH SCT020 SCT045
     FM010500 06012KT P6SM VCSH SCT020 BKN035
     FM012000 06017G26KT P6SM VCSH SCT020 SCT045
      AMD NOT SKED AFT 010400=

USA.gov is the U.S. government's official web portal to all federal, state and local government web resources and services.